sensor_id;sensor_type;location;lat;lon;timestamp;pressure;altitude;pressure_sealevel;temperature;humidity
15914;BME280;8055;51.930;8.840;2022-07-12T00:01:43;100408.72;;;13.30;100.00
15914;BME280;8055;51.930;8.840;2022-07-12T00:04:08;100417.22;;;13.35;100.00
15914;BME280;8055;51.930;8.840;2022-07-12T00:06:33;100420.31;;;13.32;100.00
15914;BME280;8055;51.930;8.840;2022-07-12T00:08:59;100413.28;;;13.38;100.00
15914;BME280;8055;51.930;8.840;2022-07-12T00:11:24;100416.34;;;13.35;100.00
15914;BME280;8055;51.930;8.840;2022-07-12T00:13:50;100409.91;;;13.36;100.00
15914;BME280;8055;51.930;8.840;2022-07-12T00:16:15;100405.97;;;13.38;100.00
15914;BME280;8055;51.930;8.840;2022-07-12T00:18:43;100418.69;;;13.46;100.00
15914;BME280;8055;51.930;8.840;2022-07-12T00:21:08;100412.88;;;13.49;100.00
15914;BME280;8055;51.930;8.840;2022-07-12T00:23:34;100419.03;;;13.51;100.00
15914;BME280;8055;51.930;8.840;2022-07-12T00:25:59;100419.38;;;13.48;100.00
15914;BME280;8055;51.930;8.840;2022-07-12T00:28:29;100426.84;;;13.54;100.00
15914;BME280;8055;51.930;8.840;2022-07-12T00:30:55;100425.13;;;13.53;100.00
15914;BME280;8055;51.930;8.840;2022-07-12T00:33:20;100426.53;;;13.49;100.00
15914;BME280;8055;51.930;8.840;2022-07-12T00:35:46;100418.34;;;13.49;100.00
15914;BME280;8055;51.930;8.840;2022-07-12T00:38:12;100421.28;;;13.48;100.00
15914;BME280;8055;51.930;8.840;2022-07-12T00:40:37;100419.53;;;13.55;100.00
15914;BME280;8055;51.930;8.840;2022-07-12T00:43:02;100423.28;;;13.54;100.00
15914;BME280;8055;51.930;8.840;2022-07-12T00:45:28;100419.16;;;13.58;100.00
15914;BME280;8055;51.930;8.840;2022-07-12T00:47:53;100417.97;;;13.60;100.00
15914;BME280;8055;51.930;8.840;2022-07-12T00:50:23;100412.13;;;13.63;100.00
15914;BME280;8055;51.930;8.840;2022-07-12T00:52:51;100414.06;;;13.55;100.00
15914;BME280;8055;51.930;8.840;2022-07-12T00:55:17;100413.03;;;13.56;100.00
15914;BME280;8055;51.930;8.840;2022-07-12T00:57:43;100415.63;;;13.49;100.00
15914;BME280;8055;51.930;8.840;2022-07-12T01:00:12;100412.22;;;13.47;100.00
15914;BME280;8055;51.930;8.840;2022-07-12T01:02:38;100412.91;;;13.41;100.00
15914;BME280;8055;51.930;8.840;2022-07-12T01:05:05;100404.72;;;13.41;100.00
15914;BME280;8055;51.930;8.840;2022-07-12T01:07:31;100414.16;;;13.38;100.00
15914;BME280;8055;51.930;8.840;2022-07-12T01:09:58;100405.44;;;13.35;100.00
15914;BME280;8055;51.930;8.840;2022-07-12T01:12:24;100405.31;;;13.28;100.00
15914;BME280;8055;51.930;8.840;2022-07-12T01:14:50;100411.28;;;13.24;100.00
15914;BME280;8055;51.930;8.840;2022-07-12T01:17:20;100405.13;;;13.22;100.00
15914;BME280;8055;51.930;8.840;2022-07-12T01:19:47;100402.28;;;13.15;100.00
15914;BME280;8055;51.930;8.840;2022-07-12T01:22:15;100409.47;;;13.08;100.00
15914;BME280;8055;51.930;8.840;2022-07-12T01:24:42;100411.69;;;13.04;100.00
15914;BME280;8055;51.930;8.840;2022-07-12T01:27:08;100405.22;;;13.05;100.00
15914;BME280;8055;51.930;8.840;2022-07-12T01:29:34;100403.50;;;13.04;100.00
15914;BME280;8055;51.930;8.840;2022-07-12T01:32:01;100397.91;;;12.98;100.00
15914;BME280;8055;51.930;8.840;2022-07-12T01:34:47;100398.06;;;12.96;100.00
15914;BME280;8055;51.930;8.840;2022-07-12T01:37:14;100406.13;;;12.89;100.00
15914;BME280;8055;51.930;8.840;2022-07-12T01:39:40;100399.63;;;12.90;100.00
15914;BME280;8055;51.930;8.840;2022-07-12T01:42:05;100396.06;;;12.90;100.00
15914;BME280;8055;51.930;8.840;2022-07-12T01:44:31;100392.28;;;12.91;100.00
15914;BME280;8055;51.930;8.840;2022-07-12T01:46:58;100393.19;;;12.83;100.00
15914;BME280;8055;51.930;8.840;2022-07-12T01:49:23;100381.59;;;12.81;100.00
15914;BME280;8055;51.930;8.840;2022-07-12T01:51:48;100382.13;;;12.77;100.00
15914;BME280;8055;51.930;8.840;2022-07-12T01:54:14;100387.03;;;12.81;100.00
15914;BME280;8055;51.930;8.840;2022-07-12T01:56:39;100388.06;;;12.80;100.00
15914;BME280;8055;51.930;8.840;2022-07-12T01:59:05;100380.25;;;12.77;100.00
15914;BME280;8055;51.930;8.840;2022-07-12T02:01:31;100380.59;;;12.74;100.00
15914;BME280;8055;51.930;8.840;2022-07-12T02:04:02;100378.91;;;12.73;100.00
15914;BME280;8055;51.930;8.840;2022-07-12T02:06:28;100383.69;;;12.63;100.00
15914;BME280;8055;51.930;8.840;2022-07-12T02:08:53;100383.53;;;12.56;100.00
15914;BME280;8055;51.930;8.840;2022-07-12T02:11:19;100380.63;;;12.58;100.00
15914;BME280;8055;51.930;8.840;2022-07-12T02:13:44;100379.81;;;12.49;100.00
15914;BME280;8055;51.930;8.840;2022-07-12T02:16:09;100375.03;;;12.43;100.00
15914;BME280;8055;51.930;8.840;2022-07-12T02:18:35;100374.19;;;12.42;100.00
15914;BME280;8055;51.930;8.840;2022-07-12T02:21:00;100380.00;;;12.39;100.00
15914;BME280;8055;51.930;8.840;2022-07-12T02:23:27;100382.72;;;12.31;100.00
15914;BME280;8055;51.930;8.840;2022-07-12T02:25:52;100386.31;;;12.32;100.00
15914;BME280;8055;51.930;8.840;2022-07-12T02:28:18;100378.78;;;12.34;100.00
15914;BME280;8055;51.930;8.840;2022-07-12T02:30:43;100380.88;;;12.32;100.00
15914;BME280;8055;51.930;8.840;2022-07-12T02:33:08;100381.00;;;12.22;100.00
15914;BME280;8055;51.930;8.840;2022-07-12T02:35:34;100385.28;;;12.24;100.00
15914;BME280;8055;51.930;8.840;2022-07-12T02:37:59;100383.72;;;12.22;100.00
15914;BME280;8055;51.930;8.840;2022-07-12T02:40:25;100391.75;;;12.15;100.00
15914;BME280;8055;51.930;8.840;2022-07-12T02:43:09;100394.97;;;12.19;100.00
15914;BME280;8055;51.930;8.840;2022-07-12T02:45:34;100396.00;;;12.18;100.00
15914;BME280;8055;51.930;8.840;2022-07-12T02:48:00;100392.06;;;12.12;100.00
15914;BME280;8055;51.930;8.840;2022-07-12T02:50:25;100398.56;;;12.19;100.00
15914;BME280;8055;51.930;8.840;2022-07-12T02:52:51;100402.47;;;12.17;100.00
15914;BME280;8055;51.930;8.840;2022-07-12T02:55:16;100402.13;;;12.12;100.00
15914;BME280;8055;51.930;8.840;2022-07-12T02:57:41;100403.47;;;12.16;100.00
15914;BME280;8055;51.930;8.840;2022-07-12T03:00:07;100392.09;;;12.20;100.00
15914;BME280;8055;51.930;8.840;2022-07-12T03:02:33;100398.72;;;12.18;100.00
15914;BME280;8055;51.930;8.840;2022-07-12T03:04:59;100402.97;;;12.20;100.00
15914;BME280;8055;51.930;8.840;2022-07-12T03:07:24;100412.34;;;12.18;100.00
15914;BME280;8055;51.930;8.840;2022-07-12T03:09:49;100404.53;;;12.23;100.00
15914;BME280;8055;51.930;8.840;2022-07-12T03:12:15;100404.53;;;12.23;100.00
15914;BME280;8055;51.930;8.840;2022-07-12T03:14:40;100406.56;;;12.21;100.00
15914;BME280;8055;51.930;8.840;2022-07-12T03:17:06;100411.50;;;12.17;100.00
15914;BME280;8055;51.930;8.840;2022-07-12T03:19:31;100411.81;;;12.06;100.00
15914;BME280;8055;51.930;8.840;2022-07-12T03:21:57;100416.78;;;12.11;100.00
15914;BME280;8055;51.930;8.840;2022-07-12T03:24:22;100418.13;;;12.15;100.00
15914;BME280;8055;51.930;8.840;2022-07-12T03:26:48;100421.53;;;12.09;100.00
15914;BME280;8055;51.930;8.840;2022-07-12T03:29:13;100430.38;;;12.02;100.00
15914;BME280;8055;51.930;8.840;2022-07-12T03:31:40;100427.81;;;12.09;100.00
15914;BME280;8055;51.930;8.840;2022-07-12T03:34:06;100424.06;;;12.18;100.00
15914;BME280;8055;51.930;8.840;2022-07-12T03:36:31;100434.47;;;12.23;100.00
15914;BME280;8055;51.930;8.840;2022-07-12T03:38:56;100434.47;;;12.31;100.00
15914;BME280;8055;51.930;8.840;2022-07-12T03:41:22;100435.34;;;12.32;100.00
15914;BME280;8055;51.930;8.840;2022-07-12T03:43:47;100426.28;;;12.39;100.00
15914;BME280;8055;51.930;8.840;2022-07-12T03:46:12;100440.06;;;12.46;100.00
15914;BME280;8055;51.930;8.840;2022-07-12T03:48:38;100436.16;;;12.48;100.00
15914;BME280;8055;51.930;8.840;2022-07-12T03:51:03;100448.25;;;12.54;100.00
15914;BME280;8055;51.930;8.840;2022-07-12T03:53:28;100441.78;;;12.55;100.00
15914;BME280;8055;51.930;8.840;2022-07-12T03:55:54;100448.22;;;12.62;100.00
15914;BME280;8055;51.930;8.840;2022-07-12T03:58:19;100445.66;;;12.69;100.00
15914;BME280;8055;51.930;8.840;2022-07-12T04:00:45;100441.41;;;12.74;100.00
15914;BME280;8055;51.930;8.840;2022-07-12T04:03:10;100434.94;;;12.76;100.00
15914;BME280;8055;51.930;8.840;2022-07-12T04:05:37;100438.19;;;12.79;100.00
15914;BME280;8055;51.930;8.840;2022-07-12T04:08:02;100440.72;;;12.81;100.00
15914;BME280;8055;51.930;8.840;2022-07-12T04:10:28;100449.03;;;12.87;100.00
15914;BME280;8055;51.930;8.840;2022-07-12T04:12:53;100465.75;;;12.92;100.00
15914;BME280;8055;51.930;8.840;2022-07-12T04:15:19;100464.22;;;12.90;100.00
15914;BME280;8055;51.930;8.840;2022-07-12T04:17:44;100461.13;;;12.93;100.00
15914;BME280;8055;51.930;8.840;2022-07-12T04:20:10;100465.06;;;12.99;100.00
15914;BME280;8055;51.930;8.840;2022-07-12T04:22:36;100467.25;;;13.03;100.00
15914;BME280;8055;51.930;8.840;2022-07-12T04:25:01;100471.50;;;13.06;100.00
15914;BME280;8055;51.930;8.840;2022-07-12T04:27:26;100460.94;;;13.11;100.00
15914;BME280;8055;51.930;8.840;2022-07-12T04:29:52;100460.59;;;13.14;100.00
15914;BME280;8055;51.930;8.840;2022-07-12T04:32:18;100464.66;;;13.18;100.00
15914;BME280;8055;51.930;8.840;2022-07-12T04:34:43;100467.72;;;13.23;100.00
15914;BME280;8055;51.930;8.840;2022-07-12T04:37:09;100473.16;;;13.31;100.00
15914;BME280;8055;51.930;8.840;2022-07-12T04:39:34;100477.25;;;13.35;100.00
15914;BME280;8055;51.930;8.840;2022-07-12T04:42:00;100475.50;;;13.42;100.00
15914;BME280;8055;51.930;8.840;2022-07-12T04:44:25;100468.50;;;13.48;100.00
15914;BME280;8055;51.930;8.840;2022-07-12T04:46:50;100475.97;;;13.54;100.00
15914;BME280;8055;51.930;8.840;2022-07-12T04:49:16;100476.13;;;13.61;100.00
15914;BME280;8055;51.930;8.840;2022-07-12T04:51:41;100478.78;;;13.69;100.00
15914;BME280;8055;51.930;8.840;2022-07-12T04:54:07;100473.66;;;13.74;100.00
15914;BME280;8055;51.930;8.840;2022-07-12T04:56:33;100471.06;;;13.81;100.00
15914;BME280;8055;51.930;8.840;2022-07-12T04:58:58;100471.03;;;13.89;100.00
15914;BME280;8055;51.930;8.840;2022-07-12T05:01:24;100473.19;;;13.94;100.00
15914;BME280;8055;51.930;8.840;2022-07-12T05:03:50;100467.03;;;14.00;100.00
15914;BME280;8055;51.930;8.840;2022-07-12T05:06:16;100469.72;;;14.08;100.00
15914;BME280;8055;51.930;8.840;2022-07-12T05:08:41;100478.03;;;14.15;100.00
15914;BME280;8055;51.930;8.840;2022-07-12T05:11:07;100481.91;;;14.20;100.00
15914;BME280;8055;51.930;8.840;2022-07-12T05:13:32;100487.03;;;14.23;100.00
15914;BME280;8055;51.930;8.840;2022-07-12T05:15:58;100481.19;;;14.26;100.00
15914;BME280;8055;51.930;8.840;2022-07-12T05:18:24;100484.22;;;14.31;100.00
15914;BME280;8055;51.930;8.840;2022-07-12T05:20:49;100476.31;;;14.37;100.00
15914;BME280;8055;51.930;8.840;2022-07-12T05:23:14;100492.00;;;14.43;100.00
15914;BME280;8055;51.930;8.840;2022-07-12T05:25:40;100498.63;;;14.48;100.00
15914;BME280;8055;51.930;8.840;2022-07-12T05:28:05;100489.72;;;14.54;100.00
15914;BME280;8055;51.930;8.840;2022-07-12T05:30:31;100493.09;;;14.56;100.00
15914;BME280;8055;51.930;8.840;2022-07-12T05:32:56;100495.78;;;14.65;100.00
15914;BME280;8055;51.930;8.840;2022-07-12T05:35:22;100500.50;;;14.71;100.00
15914;BME280;8055;51.930;8.840;2022-07-12T05:37:47;100498.63;;;14.71;100.00
15914;BME280;8055;51.930;8.840;2022-07-12T05:40:12;100493.56;;;14.83;100.00
15914;BME280;8055;51.930;8.840;2022-07-12T05:42:38;100501.50;;;14.93;100.00
15914;BME280;8055;51.930;8.840;2022-07-12T05:45:04;100499.34;;;15.03;100.00
15914;BME280;8055;51.930;8.840;2022-07-12T05:47:30;100504.66;;;15.04;100.00
15914;BME280;8055;51.930;8.840;2022-07-12T05:49:55;100507.28;;;15.13;100.00
15914;BME280;8055;51.930;8.840;2022-07-12T05:52:21;100511.47;;;15.23;100.00
15914;BME280;8055;51.930;8.840;2022-07-12T05:55:05;100505.03;;;15.31;100.00
15914;BME280;8055;51.930;8.840;2022-07-12T05:57:31;100511.06;;;15.41;100.00
15914;BME280;8055;51.930;8.840;2022-07-12T05:59:56;100505.03;;;15.46;100.00
15914;BME280;8055;51.930;8.840;2022-07-12T06:02:22;100496.53;;;15.56;100.00
15914;BME280;8055;51.930;8.840;2022-07-12T06:04:48;100508.25;;;15.64;100.00
15914;BME280;8055;51.930;8.840;2022-07-12T06:07:13;100499.28;;;15.70;100.00
15914;BME280;8055;51.930;8.840;2022-07-12T06:09:38;100507.38;;;15.79;100.00
15914;BME280;8055;51.930;8.840;2022-07-12T06:12:04;100498.88;;;15.88;100.00
15914;BME280;8055;51.930;8.840;2022-07-12T06:14:29;100503.13;;;15.91;100.00
15914;BME280;8055;51.930;8.840;2022-07-12T06:16:55;100495.81;;;15.98;100.00
15914;BME280;8055;51.930;8.840;2022-07-12T06:19:20;100491.38;;;15.97;100.00
15914;BME280;8055;51.930;8.840;2022-07-12T06:21:48;100503.16;;;16.12;100.00
15914;BME280;8055;51.930;8.840;2022-07-12T06:24:14;100482.88;;;16.28;100.00
15914;BME280;8055;51.930;8.840;2022-07-12T06:26:39;100492.06;;;16.42;100.00
15914;BME280;8055;51.930;8.840;2022-07-12T06:29:05;100490.25;;;16.49;100.00
15914;BME280;8055;51.930;8.840;2022-07-12T06:31:30;100494.31;;;16.53;100.00
15914;BME280;8055;51.930;8.840;2022-07-12T06:33:56;100485.34;;;16.66;100.00
15914;BME280;8055;51.930;8.840;2022-07-12T06:36:21;100499.84;;;16.81;100.00
15914;BME280;8055;51.930;8.840;2022-07-12T06:38:47;100491.94;;;16.93;100.00
15914;BME280;8055;51.930;8.840;2022-07-12T06:41:12;100496.63;;;16.99;100.00
15914;BME280;8055;51.930;8.840;2022-07-12T06:43:38;100492.06;;;17.13;100.00
15914;BME280;8055;51.930;8.840;2022-07-12T06:46:04;100492.63;;;17.30;100.00
15914;BME280;8055;51.930;8.840;2022-07-12T06:48:29;100494.00;;;17.54;100.00
15914;BME280;8055;51.930;8.840;2022-07-12T06:50:54;100499.22;;;17.42;100.00
15914;BME280;8055;51.930;8.840;2022-07-12T06:53:20;100495.59;;;17.76;100.00
15914;BME280;8055;51.930;8.840;2022-07-12T06:55:45;100495.06;;;17.94;100.00
15914;BME280;8055;51.930;8.840;2022-07-12T06:58:11;100498.09;;;18.13;100.00
15914;BME280;8055;51.930;8.840;2022-07-12T07:00:37;100504.44;;;18.13;100.00
15914;BME280;8055;51.930;8.840;2022-07-12T07:03:05;100502.13;;;18.23;100.00
15914;BME280;8055;51.930;8.840;2022-07-12T07:05:31;100499.44;;;18.30;100.00
15914;BME280;8055;51.930;8.840;2022-07-12T07:07:56;100505.28;;;18.20;100.00
15914;BME280;8055;51.930;8.840;2022-07-12T07:10:22;100502.75;;;18.06;100.00
15914;BME280;8055;51.930;8.840;2022-07-12T07:12:47;100493.47;;;18.20;100.00
15914;BME280;8055;51.930;8.840;2022-07-12T07:15:13;100496.00;;;18.15;100.00
15914;BME280;8055;51.930;8.840;2022-07-12T07:17:41;100505.69;;;18.04;100.00
15914;BME280;8055;51.930;8.840;2022-07-12T07:20:11;100500.63;;;18.14;100.00
15914;BME280;8055;51.930;8.840;2022-07-12T07:22:37;100504.84;;;18.03;100.00
15914;BME280;8055;51.930;8.840;2022-07-12T07:25:03;100511.19;;;18.11;100.00
15914;BME280;8055;51.930;8.840;2022-07-12T07:27:29;100504.81;;;17.97;100.00
15914;BME280;8055;51.930;8.840;2022-07-12T07:29:54;100509.34;;;18.18;100.00
15914;BME280;8055;51.930;8.840;2022-07-12T07:32:38;100505.94;;;18.22;100.00
15914;BME280;8055;51.930;8.840;2022-07-12T07:35:04;100510.88;;;18.40;100.00
15914;BME280;8055;51.930;8.840;2022-07-12T07:37:31;100506.63;;;18.38;100.00
15914;BME280;8055;51.930;8.840;2022-07-12T07:39:57;100522.13;;;18.72;100.00
15914;BME280;8055;51.930;8.840;2022-07-12T07:42:22;100515.38;;;18.94;100.00
15914;BME280;8055;51.930;8.840;2022-07-12T07:44:48;100516.00;;;19.10;100.00
15914;BME280;8055;51.930;8.840;2022-07-12T07:47:13;100517.50;;;19.19;100.00
15914;BME280;8055;51.930;8.840;2022-07-12T07:49:39;100520.44;;;19.31;100.00
15914;BME280;8055;51.930;8.840;2022-07-12T07:52:04;100517.88;;;19.36;100.00
15914;BME280;8055;51.930;8.840;2022-07-12T07:54:30;100521.44;;;19.56;100.00
15914;BME280;8055;51.930;8.840;2022-07-12T07:56:55;100518.47;;;19.71;100.00
15914;BME280;8055;51.930;8.840;2022-07-12T07:59:20;100523.78;;;19.66;100.00
15914;BME280;8055;51.930;8.840;2022-07-12T08:01:46;100525.47;;;19.67;100.00
15914;BME280;8055;51.930;8.840;2022-07-12T08:04:16;100526.94;;;19.70;100.00
15914;BME280;8055;51.930;8.840;2022-07-12T08:06:44;100524.38;;;19.61;100.00
15914;BME280;8055;51.930;8.840;2022-07-12T08:09:10;100521.03;;;19.66;100.00
15914;BME280;8055;51.930;8.840;2022-07-12T08:11:36;100520.78;;;19.68;100.00
15914;BME280;8055;51.930;8.840;2022-07-12T08:14:02;100511.25;;;19.63;100.00
15914;BME280;8055;51.930;8.840;2022-07-12T08:16:28;100522.06;;;19.72;100.00
15914;BME280;8055;51.930;8.840;2022-07-12T08:18:53;100516.75;;;19.77;100.00
15914;BME280;8055;51.930;8.840;2022-07-12T08:21:19;100516.09;;;19.81;100.00
15914;BME280;8055;51.930;8.840;2022-07-12T08:23:45;100518.59;;;19.90;100.00
15914;BME280;8055;51.930;8.840;2022-07-12T08:26:10;100500.81;;;19.85;100.00
15914;BME280;8055;51.930;8.840;2022-07-12T08:28:36;100504.53;;;20.04;100.00
15914;BME280;8055;51.930;8.840;2022-07-12T08:31:01;100505.69;;;19.90;100.00
15914;BME280;8055;51.930;8.840;2022-07-12T08:33:26;100497.38;;;19.97;100.00
15914;BME280;8055;51.930;8.840;2022-07-12T08:35:52;100499.59;;;20.20;100.00
15914;BME280;8055;51.930;8.840;2022-07-12T08:38:17;100497.38;;;20.35;100.00
15914;BME280;8055;51.930;8.840;2022-07-12T08:40:43;100499.19;;;20.48;100.00
15914;BME280;8055;51.930;8.840;2022-07-12T08:43:08;100492.13;;;20.59;100.00
15914;BME280;8055;51.930;8.840;2022-07-12T08:45:34;100491.44;;;20.70;100.00
15914;BME280;8055;51.930;8.840;2022-07-12T08:47:59;100497.63;;;20.65;100.00
15914;BME280;8055;51.930;8.840;2022-07-12T08:50:25;100490.41;;;20.89;100.00
15914;BME280;8055;51.930;8.840;2022-07-12T08:52:53;100491.63;;;21.00;100.00
15914;BME280;8055;51.930;8.840;2022-07-12T08:55:32;100488.81;;;21.25;100.00
15914;BME280;8055;51.930;8.840;2022-07-12T08:58:03;100494.31;;;21.07;100.00
15914;BME280;8055;51.930;8.840;2022-07-12T09:00:31;100496.94;;;21.20;100.00
15914;BME280;8055;51.930;8.840;2022-07-12T09:02:59;100501.78;;;21.24;100.00
15914;BME280;8055;51.930;8.840;2022-07-12T09:05:26;100499.91;;;21.18;100.00
15914;BME280;8055;51.930;8.840;2022-07-12T09:08:02;100509.22;;;21.49;100.00
15914;BME280;8055;51.930;8.840;2022-07-12T09:10:28;100506.69;;;21.47;100.00
15914;BME280;8055;51.930;8.840;2022-07-12T09:12:53;100510.91;;;21.50;100.00
15914;BME280;8055;51.930;8.840;2022-07-12T09:15:20;100505.97;;;21.52;100.00
15914;BME280;8055;51.930;8.840;2022-07-12T09:18:01;100511.53;;;21.70;100.00
15914;BME280;8055;51.930;8.840;2022-07-12T09:20:29;100509.00;;;21.87;100.00
15914;BME280;8055;51.930;8.840;2022-07-12T09:22:57;100507.00;;;21.76;100.00
15914;BME280;8055;51.930;8.840;2022-07-12T09:25:23;100505.00;;;21.83;100.00
15914;BME280;8055;51.930;8.840;2022-07-12T09:27:56;100506.53;;;21.98;100.00
15914;BME280;8055;51.930;8.840;2022-07-12T09:30:24;100503.88;;;22.03;100.00
15914;BME280;8055;51.930;8.840;2022-07-12T09:32:51;100512.34;;;22.08;100.00
15914;BME280;8055;51.930;8.840;2022-07-12T09:35:36;100510.19;;;22.10;100.00
15914;BME280;8055;51.930;8.840;2022-07-12T09:38:20;100515.19;;;22.20;100.00
15914;BME280;8055;51.930;8.840;2022-07-12T09:40:45;100510.19;;;22.10;100.00
15914;BME280;8055;51.930;8.840;2022-07-12T09:43:13;100501.13;;;22.21;100.00
15914;BME280;8055;51.930;8.840;2022-07-12T09:45:40;100505.91;;;22.44;100.00
15914;BME280;8055;51.930;8.840;2022-07-12T09:48:06;100503.78;;;22.58;100.00
15914;BME280;8055;51.930;8.840;2022-07-12T09:50:35;100494.78;;;22.74;100.00
15914;BME280;8055;51.930;8.840;2022-07-12T09:53:02;100495.53;;;22.93;100.00
15914;BME280;8055;51.930;8.840;2022-07-12T09:55:30;100496.97;;;22.84;100.00
15914;BME280;8055;51.930;8.840;2022-07-12T09:58:01;100498.69;;;22.97;100.00
15914;BME280;8055;51.930;8.840;2022-07-12T10:00:27;100503.41;;;22.96;99.35
15914;BME280;8055;51.930;8.840;2022-07-12T10:02:52;100495.34;;;23.18;100.00
15914;BME280;8055;51.930;8.840;2022-07-12T10:05:20;100492.81;;;23.17;100.00
15914;BME280;8055;51.930;8.840;2022-07-12T10:07:48;100497.75;;;23.26;95.46
15914;BME280;8055;51.930;8.840;2022-07-12T10:10:16;100505.59;;;23.29;95.99
15914;BME280;8055;51.930;8.840;2022-07-12T10:12:42;100507.75;;;23.27;96.15
15914;BME280;8055;51.930;8.840;2022-07-12T10:15:16;100506.31;;;23.13;91.20
15914;BME280;8055;51.930;8.840;2022-07-12T10:17:51;100496.44;;;23.29;93.81
15914;BME280;8055;51.930;8.840;2022-07-12T10:20:21;100497.50;;;23.40;92.79
15914;BME280;8055;51.930;8.840;2022-07-12T10:23:29;100488.44;;;23.56;91.39
15914;BME280;8055;51.930;8.840;2022-07-12T10:26:23;100483.13;;;23.66;88.26
15914;BME280;8055;51.930;8.840;2022-07-12T10:29:06;100486.34;;;23.87;86.41
15914;BME280;8055;51.930;8.840;2022-07-12T10:31:38;100486.47;;;23.92;87.14
15914;BME280;8055;51.930;8.840;2022-07-12T10:34:08;100488.41;;;23.91;84.49
15914;BME280;8055;51.930;8.840;2022-07-12T10:39:17;100471.44;;;24.16;85.12
15914;BME280;8055;51.930;8.840;2022-07-12T10:41:43;100480.63;;;24.34;85.96
15914;BME280;8055;51.930;8.840;2022-07-12T10:44:08;100469.19;;;24.30;80.80
15914;BME280;8055;51.930;8.840;2022-07-12T10:46:33;100477.31;;;24.20;81.60
15914;BME280;8055;51.930;8.840;2022-07-12T10:54:41;100469.16;;;24.59;82.96
15914;BME280;8055;51.930;8.840;2022-07-12T10:57:07;100464.38;;;24.71;80.96
15914;BME280;8055;51.930;8.840;2022-07-12T10:59:35;100467.06;;;24.66;77.65
15914;BME280;8055;51.930;8.840;2022-07-12T11:02:01;100467.59;;;24.80;78.58
15914;BME280;8055;51.930;8.840;2022-07-12T11:04:26;100452.34;;;24.65;63.60
15914;BME280;8055;51.930;8.840;2022-07-12T11:06:54;100451.34;;;24.88;52.98
15914;BME280;8055;51.930;8.840;2022-07-12T11:09:22;100455.72;;;25.18;50.63
15914;BME280;8055;51.930;8.840;2022-07-12T11:11:49;100457.03;;;25.32;51.74
15914;BME280;8055;51.930;8.840;2022-07-12T11:14:25;100447.81;;;25.49;52.48
15914;BME280;8055;51.930;8.840;2022-07-12T11:16:52;100450.97;;;25.35;50.99
15914;BME280;8055;51.930;8.840;2022-07-12T11:19:26;100449.38;;;25.61;52.10
15914;BME280;8055;51.930;8.840;2022-07-12T11:21:52;100445.34;;;25.74;51.63
15914;BME280;8055;51.930;8.840;2022-07-12T11:24:23;100445.44;;;25.79;49.78
15914;BME280;8055;51.930;8.840;2022-07-12T11:26:50;100442.78;;;25.90;49.60
15914;BME280;8055;51.930;8.840;2022-07-12T11:29:16;100455.53;;;26.07;49.85
15914;BME280;8055;51.930;8.840;2022-07-12T11:31:42;100437.66;;;25.81;45.65
15914;BME280;8055;51.930;8.840;2022-07-12T11:34:19;100438.69;;;25.97;46.75
15914;BME280;8055;51.930;8.840;2022-07-12T11:36:45;100438.03;;;25.68;45.13
15914;BME280;8055;51.930;8.840;2022-07-12T11:39:11;100428.47;;;26.30;46.72
15914;BME280;8055;51.930;8.840;2022-07-12T11:41:36;100431.75;;;26.49;46.24
15914;BME280;8055;51.930;8.840;2022-07-12T11:44:01;100423.75;;;26.58;45.76
15914;BME280;8055;51.930;8.840;2022-07-12T11:46:27;100422.03;;;26.57;45.37
15914;BME280;8055;51.930;8.840;2022-07-12T11:48:52;100421.84;;;26.36;44.23
15914;BME280;8055;51.930;8.840;2022-07-12T11:51:17;100424.25;;;26.92;45.65
15914;BME280;8055;51.930;8.840;2022-07-12T11:53:43;100413.50;;;27.06;42.95
15914;BME280;8055;51.930;8.840;2022-07-12T11:56:09;100408.94;;;26.94;43.42
15914;BME280;8055;51.930;8.840;2022-07-12T11:58:36;100411.09;;;27.14;43.23
15914;BME280;8055;51.930;8.840;2022-07-12T12:01:04;100402.72;;;27.19;44.11
15914;BME280;8055;51.930;8.840;2022-07-12T12:03:29;100401.84;;;27.66;42.34
15914;BME280;8055;51.930;8.840;2022-07-12T12:05:57;100406.19;;;27.37;39.60
15914;BME280;8055;51.930;8.840;2022-07-12T12:08:24;100403.72;;;27.45;42.17
15914;BME280;8055;51.930;8.840;2022-07-12T12:13:19;100397.84;;;28.30;42.77
15914;BME280;8055;51.930;8.840;2022-07-12T12:15:54;100399.22;;;28.28;41.19
15914;BME280;8055;51.930;8.840;2022-07-12T12:20:58;100403.84;;;27.18;40.43
15914;BME280;8055;51.930;8.840;2022-07-12T12:23:24;100403.47;;;27.52;40.99
15914;BME280;8055;51.930;8.840;2022-07-12T12:25:49;100401.16;;;27.39;40.11
15914;BME280;8055;51.930;8.840;2022-07-12T12:28:15;100396.53;;;27.65;39.50
15914;BME280;8055;51.930;8.840;2022-07-12T12:30:54;100399.47;;;28.16;40.70
15914;BME280;8055;51.930;8.840;2022-07-12T12:33:40;100397.00;;;28.30;39.01
15914;BME280;8055;51.930;8.840;2022-07-12T12:36:23;100402.25;;;28.06;40.67
15914;BME280;8055;51.930;8.840;2022-07-12T12:39:07;100394.75;;;28.11;40.42
15914;BME280;8055;51.930;8.840;2022-07-12T12:41:41;100387.53;;;28.51;40.83
15914;BME280;8055;51.930;8.840;2022-07-12T12:44:06;100389.41;;;28.10;38.21
15914;BME280;8055;51.930;8.840;2022-07-12T12:46:55;100386.13;;;28.59;39.63
15914;BME280;8055;51.930;8.840;2022-07-12T12:49:48;100394.78;;;28.27;39.96
15914;BME280;8055;51.930;8.840;2022-07-12T12:52:14;100382.50;;;28.74;40.41
15914;BME280;8055;51.930;8.840;2022-07-12T12:54:40;100378.25;;;28.97;39.47
15914;BME280;8055;51.930;8.840;2022-07-12T12:57:06;100374.06;;;28.99;38.19
15914;BME280;8055;51.930;8.840;2022-07-12T12:59:33;100377.72;;;28.90;37.90
15914;BME280;8055;51.930;8.840;2022-07-12T13:01:59;100378.00;;;28.78;39.79
15914;BME280;8055;51.930;8.840;2022-07-12T13:04:28;100372.16;;;28.74;39.11
15914;BME280;8055;51.930;8.840;2022-07-12T13:06:54;100380.81;;;28.57;40.24